createdAt,value
2023-10-02T08:31:01.492Z,100.00
2023-10-02T08:33:53.978Z,100.00
2023-10-02T08:36:23.321Z,100.00
2023-10-02T08:38:59.379Z,100.00
2023-10-02T08:41:45.022Z,100.00
2023-10-02T08:44:16.326Z,100.00
2023-10-02T08:46:46.648Z,100.00
2023-10-02T08:49:17.880Z,100.00
2023-10-02T08:51:53.414Z,100.00
2023-10-02T08:54:29.089Z,100.00
2023-10-02T08:57:10.247Z,100.00
2023-10-02T08:59:40.446Z,100.00
2023-10-02T09:02:18.298Z,100.00
2023-10-02T09:04:53.687Z,100.00
2023-10-02T09:07:46.322Z,99.93
2023-10-02T09:10:32.367Z,99.00
2023-10-02T09:13:18.677Z,98.69
2023-10-02T09:15:54.947Z,99.62
2023-10-02T09:19:18.779Z,98.39
2023-10-02T09:21:48.956Z,98.89
2023-10-02T09:24:24.585Z,97.38
2023-10-02T09:26:59.111Z,97.16
2023-10-02T09:29:29.152Z,97.59
2023-10-02T09:31:58.152Z,96.80
2023-10-02T09:34:53.480Z,96.78
2023-10-02T09:37:50.313Z,97.27
2023-10-02T09:40:18.053Z,97.91
2023-10-02T09:42:49.920Z,98.13
2023-10-02T09:45:33.125Z,97.80
2023-10-02T09:48:32.579Z,97.64
2023-10-02T09:51:08.001Z,96.72
2023-10-02T09:53:43.425Z,96.50
2023-10-02T09:56:19.426Z,96.54
2023-10-02T09:59:14.329Z,96.48
2023-10-02T10:02:09.577Z,93.81
2023-10-02T10:05:12.493Z,93.20
2023-10-02T10:07:53.812Z,94.67
2023-10-02T10:10:50.877Z,93.94
2023-10-02T10:13:48.186Z,90.42
2023-10-02T10:16:35.816Z,90.64
2023-10-02T10:19:10.196Z,91.58
2023-10-02T10:21:58.256Z,92.86
2023-10-02T10:25:02.991Z,92.90
2023-10-02T10:27:43.280Z,91.51
2023-10-02T10:30:26.501Z,88.57
2023-10-02T10:33:17.588Z,86.92
2023-10-02T10:36:20.261Z,85.40
2023-10-02T10:38:50.926Z,85.28
2023-10-02T10:41:39.931Z,84.28
2023-10-02T10:44:15.110Z,83.93
2023-10-02T10:46:49.304Z,83.61
2023-10-02T10:49:25.243Z,84.99
2023-10-02T10:51:56.945Z,85.26
2023-10-02T10:54:51.708Z,83.40
2023-10-02T10:57:24.396Z,81.01
2023-10-02T11:00:27.614Z,78.85
2023-10-02T11:03:21.606Z,77.85
2023-10-02T11:05:51.061Z,75.93
2023-10-02T11:08:30.216Z,76.53
2023-10-02T11:11:02.867Z,77.50
2023-10-02T11:13:54.597Z,77.75
2023-10-02T11:16:32.841Z,77.63
2023-10-02T11:19:22.055Z,78.38
2023-10-02T11:22:17.447Z,72.36
2023-10-02T11:24:55.994Z,67.13
2023-10-02T11:27:26.177Z,67.87
2023-10-02T11:30:08.752Z,69.08
2023-10-02T11:32:56.229Z,70.27
2023-10-02T11:35:39.636Z,70.65
2023-10-02T11:38:11.530Z,69.48
2023-10-02T11:40:45.106Z,66.26
2023-10-02T11:43:17.154Z,63.16
2023-10-02T11:45:49.515Z,62.71
2023-10-02T11:48:18.493Z,63.93
2023-10-02T11:50:48.546Z,65.33
2023-10-02T11:53:17.357Z,64.36
2023-10-02T11:55:46.277Z,65.16
2023-10-02T11:58:32.223Z,64.57
2023-10-02T12:01:06.128Z,62.62
2023-10-02T12:03:37.788Z,61.10
2023-10-02T12:06:15.740Z,61.10
2023-10-02T12:08:45.809Z,62.63
2023-10-02T12:11:17.391Z,63.96
2023-10-02T12:13:47.022Z,63.83
2023-10-02T12:16:17.327Z,62.96
2023-10-02T12:18:46.316Z,61.58
2023-10-02T12:21:16.219Z,61.62
2023-10-02T12:23:46.287Z,61.13
2023-10-02T12:26:34.349Z,61.83
2023-10-02T12:29:04.216Z,60.80
2023-10-02T12:31:37.943Z,58.87
2023-10-02T12:34:09.304Z,57.54
2023-10-02T12:36:38.115Z,54.45
2023-10-02T12:39:11.263Z,51.97
2023-10-02T12:41:44.767Z,53.25
2023-10-02T12:44:15.177Z,54.34
2023-10-02T12:46:51.900Z,55.89
2023-10-02T12:49:24.617Z,56.35
2023-10-02T12:51:54.447Z,55.53
2023-10-02T12:54:25.297Z,55.07
2023-10-02T12:56:54.937Z,55.07
2023-10-02T12:59:25.483Z,54.94
2023-10-02T13:01:54.476Z,56.01
2023-10-02T13:04:23.289Z,56.22
2023-10-02T13:06:52.742Z,55.33
2023-10-02T13:09:21.676Z,55.53
2023-10-02T13:11:50.491Z,55.43
2023-10-02T13:14:20.202Z,53.86
2023-10-02T13:16:52.898Z,53.18
2023-10-02T13:19:21.952Z,51.82
2023-10-02T13:21:54.270Z,51.65
2023-10-02T13:24:25.769Z,50.46
2023-10-02T13:26:55.376Z,50.84
2023-10-02T13:29:25.880Z,54.57
2023-10-02T13:31:54.985Z,53.29
2023-10-02T13:34:23.887Z,51.67
2023-10-02T13:36:52.717Z,50.84
2023-10-02T13:39:24.096Z,50.62
2023-10-02T13:41:55.580Z,50.11
2023-10-02T13:44:24.413Z,50.23
2023-10-02T13:46:53.561Z,49.79
2023-10-02T13:49:22.583Z,50.92
2023-10-02T13:51:51.516Z,49.81
2023-10-02T13:54:20.339Z,49.04
2023-10-02T13:56:49.189Z,48.47
2023-10-02T13:59:18.285Z,49.55
2023-10-02T14:01:47.871Z,48.50
2023-10-02T14:04:16.857Z,49.38
2023-10-02T14:06:47.654Z,50.05
2023-10-02T14:09:16.531Z,50.37
2023-10-02T14:11:45.319Z,51.52
2023-10-02T14:14:14.272Z,51.89
2023-10-02T14:16:43.083Z,52.42
2023-10-02T14:19:11.929Z,52.77
2023-10-02T14:21:40.768Z,52.86
2023-10-02T14:24:11.072Z,53.06
